sensor_id;sensor_type;location;lat;lon;timestamp;P1;durP1;ratioP1;P2;durP2;ratioP2
21562;SDS011;10942;47.894;11.424;2024-01-15T00:00:07;4.35;;;2.30;;
21562;SDS011;10942;47.894;11.424;2024-01-15T00:02:36;5.13;;;2.67;;
21562;SDS011;10942;47.894;11.424;2024-01-15T00:05:02;5.18;;;2.50;;
21562;SDS011;10942;47.894;11.424;2024-01-15T00:07:28;4.93;;;2.67;;
21562;SDS011;10942;47.894;11.424;2024-01-15T00:09:54;4.40;;;2.30;;
21562;SDS011;10942;47.894;11.424;2024-01-15T00:12:20;4.93;;;2.50;;
21562;SDS011;10942;47.894;11.424;2024-01-15T00:14:45;6.47;;;2.78;;
21562;SDS011;10942;47.894;11.424;2024-01-15T00:17:11;5.15;;;2.55;;
21562;SDS011;10942;47.894;11.424;2024-01-15T00:19:37;6.85;;;2.75;;
21562;SDS011;10942;47.894;11.424;2024-01-15T00:22:04;5.78;;;2.78;;
21562;SDS011;10942;47.894;11.424;2024-01-15T00:24:29;4.47;;;2.42;;
21562;SDS011;10942;47.894;11.424;2024-01-15T00:26:55;5.38;;;2.95;;
21562;SDS011;10942;47.894;11.424;2024-01-15T00:29:21;5.55;;;3.17;;
21562;SDS011;10942;47.894;11.424;2024-01-15T00:31:47;4.80;;;2.70;;
21562;SDS011;10942;47.894;11.424;2024-01-15T00:34:12;6.53;;;2.92;;
21562;SDS011;10942;47.894;11.424;2024-01-15T00:36:38;6.55;;;2.90;;
21562;SDS011;10942;47.894;11.424;2024-01-15T00:39:04;5.65;;;2.92;;
21562;SDS011;10942;47.894;11.424;2024-01-15T00:41:30;6.68;;;3.33;;
21562;SDS011;10942;47.894;11.424;2024-01-15T00:43:56;6.82;;;2.90;;
21562;SDS011;10942;47.894;11.424;2024-01-15T00:46:22;5.07;;;2.63;;
21562;SDS011;10942;47.894;11.424;2024-01-15T00:48:48;5.30;;;2.80;;
21562;SDS011;10942;47.894;11.424;2024-01-15T00:51:14;5.20;;;2.70;;
21562;SDS011;10942;47.894;11.424;2024-01-15T00:53:39;5.45;;;2.58;;
21562;SDS011;10942;47.894;11.424;2024-01-15T00:56:05;5.40;;;2.63;;
21562;SDS011;10942;47.894;11.424;2024-01-15T00:58:31;6.28;;;2.70;;
21562;SDS011;10942;47.894;11.424;2024-01-15T01:00:57;4.82;;;2.78;;
21562;SDS011;10942;47.894;11.424;2024-01-15T01:03:22;3.78;;;2.45;;
21562;SDS011;10942;47.894;11.424;2024-01-15T01:05:48;6.78;;;2.88;;
21562;SDS011;10942;47.894;11.424;2024-01-15T01:08:17;7.32;;;2.88;;
21562;SDS011;10942;47.894;11.424;2024-01-15T01:10:43;6.97;;;3.20;;
21562;SDS011;10942;47.894;11.424;2024-01-15T01:13:08;5.50;;;2.95;;
21562;SDS011;10942;47.894;11.424;2024-01-15T01:15:34;7.10;;;2.83;;
21562;SDS011;10942;47.894;11.424;2024-01-15T01:18:00;5.38;;;2.83;;
21562;SDS011;10942;47.894;11.424;2024-01-15T01:20:25;7.55;;;2.92;;
21562;SDS011;10942;47.894;11.424;2024-01-15T01:22:51;6.97;;;3.47;;
21562;SDS011;10942;47.894;11.424;2024-01-15T01:25:17;6.35;;;2.83;;
21562;SDS011;10942;47.894;11.424;2024-01-15T01:27:42;8.45;;;3.47;;
21562;SDS011;10942;47.894;11.424;2024-01-15T01:30:08;7.60;;;3.58;;
21562;SDS011;10942;47.894;11.424;2024-01-15T01:32:34;6.65;;;3.30;;
21562;SDS011;10942;47.894;11.424;2024-01-15T01:35:00;7.63;;;3.13;;
21562;SDS011;10942;47.894;11.424;2024-01-15T01:37:26;7.82;;;3.42;;
21562;SDS011;10942;47.894;11.424;2024-01-15T01:39:51;6.60;;;3.28;;
21562;SDS011;10942;47.894;11.424;2024-01-15T01:42:17;6.40;;;3.03;;
21562;SDS011;10942;47.894;11.424;2024-01-15T01:44:43;9.55;;;3.58;;
21562;SDS011;10942;47.894;11.424;2024-01-15T01:47:08;8.18;;;4.32;;
21562;SDS011;10942;47.894;11.424;2024-01-15T01:49:34;10.57;;;4.45;;
21562;SDS011;10942;47.894;11.424;2024-01-15T01:52:01;8.55;;;3.97;;
21562;SDS011;10942;47.894;11.424;2024-01-15T01:54:31;8.90;;;3.90;;
21562;SDS011;10942;47.894;11.424;2024-01-15T01:56:57;10.35;;;4.68;;
21562;SDS011;10942;47.894;11.424;2024-01-15T01:59:23;10.55;;;4.72;;
21562;SDS011;10942;47.894;11.424;2024-01-15T02:01:52;10.02;;;4.68;;
21562;SDS011;10942;47.894;11.424;2024-01-15T02:04:20;11.82;;;5.55;;
21562;SDS011;10942;47.894;11.424;2024-01-15T02:06:50;12.20;;;6.05;;
21562;SDS011;10942;47.894;11.424;2024-01-15T02:09:17;15.00;;;6.90;;
21562;SDS011;10942;47.894;11.424;2024-01-15T02:11:43;13.25;;;6.68;;
21562;SDS011;10942;47.894;11.424;2024-01-15T02:14:11;16.13;;;6.63;;
21562;SDS011;10942;47.894;11.424;2024-01-15T02:16:37;13.80;;;6.30;;
21562;SDS011;10942;47.894;11.424;2024-01-15T02:19:02;14.38;;;6.97;;
21562;SDS011;10942;47.894;11.424;2024-01-15T02:21:28;14.10;;;7.47;;
21562;SDS011;10942;47.894;11.424;2024-01-15T02:23:54;15.23;;;6.97;;
21562;SDS011;10942;47.894;11.424;2024-01-15T02:26:20;16.15;;;8.50;;
21562;SDS011;10942;47.894;11.424;2024-01-15T02:28:47;17.45;;;8.48;;
21562;SDS011;10942;47.894;11.424;2024-01-15T02:31:13;15.13;;;7.60;;
21562;SDS011;10942;47.894;11.424;2024-01-15T02:33:39;16.80;;;7.82;;
21562;SDS011;10942;47.894;11.424;2024-01-15T02:36:05;15.45;;;8.27;;
21562;SDS011;10942;47.894;11.424;2024-01-15T02:38:31;16.30;;;8.65;;
21562;SDS011;10942;47.894;11.424;2024-01-15T02:40:56;16.40;;;7.90;;
21562;SDS011;10942;47.894;11.424;2024-01-15T02:43:22;15.85;;;7.47;;
21562;SDS011;10942;47.894;11.424;2024-01-15T02:45:48;15.40;;;7.90;;
21562;SDS011;10942;47.894;11.424;2024-01-15T02:48:14;14.40;;;7.80;;
21562;SDS011;10942;47.894;11.424;2024-01-15T02:50:39;14.38;;;7.88;;
21562;SDS011;10942;47.894;11.424;2024-01-15T02:53:05;15.65;;;8.02;;
21562;SDS011;10942;47.894;11.424;2024-01-15T02:55:31;15.52;;;8.30;;
21562;SDS011;10942;47.894;11.424;2024-01-15T02:57:57;16.58;;;8.13;;
21562;SDS011;10942;47.894;11.424;2024-01-15T03:00:22;15.95;;;8.07;;
21562;SDS011;10942;47.894;11.424;2024-01-15T03:02:49;16.60;;;9.30;;
21562;SDS011;10942;47.894;11.424;2024-01-15T03:05:16;16.45;;;7.75;;
21562;SDS011;10942;47.894;11.424;2024-01-15T03:07:42;14.77;;;7.30;;
21562;SDS011;10942;47.894;11.424;2024-01-15T03:10:08;14.05;;;7.43;;
21562;SDS011;10942;47.894;11.424;2024-01-15T03:12:34;14.45;;;7.35;;
21562;SDS011;10942;47.894;11.424;2024-01-15T03:14:59;12.35;;;6.40;;
21562;SDS011;10942;47.894;11.424;2024-01-15T03:17:25;12.88;;;6.32;;
21562;SDS011;10942;47.894;11.424;2024-01-15T03:19:51;10.77;;;5.15;;
21562;SDS011;10942;47.894;11.424;2024-01-15T03:22:16;13.10;;;6.28;;
21562;SDS011;10942;47.894;11.424;2024-01-15T03:24:43;11.85;;;5.78;;
21562;SDS011;10942;47.894;11.424;2024-01-15T03:27:08;10.40;;;5.28;;
21562;SDS011;10942;47.894;11.424;2024-01-15T03:29:34;13.00;;;5.82;;
21562;SDS011;10942;47.894;11.424;2024-01-15T03:32:00;11.23;;;5.90;;
21562;SDS011;10942;47.894;11.424;2024-01-15T03:34:26;14.63;;;6.28;;
21562;SDS011;10942;47.894;11.424;2024-01-15T03:36:51;14.90;;;6.60;;
21562;SDS011;10942;47.894;11.424;2024-01-15T03:39:17;11.82;;;5.95;;
21562;SDS011;10942;47.894;11.424;2024-01-15T03:41:43;13.15;;;6.03;;
21562;SDS011;10942;47.894;11.424;2024-01-15T03:44:08;11.18;;;5.70;;
21562;SDS011;10942;47.894;11.424;2024-01-15T03:46:34;10.80;;;5.35;;
21562;SDS011;10942;47.894;11.424;2024-01-15T03:49:00;9.88;;;4.50;;
21562;SDS011;10942;47.894;11.424;2024-01-15T03:51:25;8.82;;;4.50;;
21562;SDS011;10942;47.894;11.424;2024-01-15T03:53:51;12.13;;;5.30;;
21562;SDS011;10942;47.894;11.424;2024-01-15T03:56:17;9.68;;;5.13;;
21562;SDS011;10942;47.894;11.424;2024-01-15T03:58:42;10.23;;;5.05;;
21562;SDS011;10942;47.894;11.424;2024-01-15T04:01:11;9.98;;;4.65;;
21562;SDS011;10942;47.894;11.424;2024-01-15T04:03:37;11.13;;;4.72;;
21562;SDS011;10942;47.894;11.424;2024-01-15T04:06:04;8.77;;;4.25;;
21562;SDS011;10942;47.894;11.424;2024-01-15T04:08:30;8.05;;;4.65;;
21562;SDS011;10942;47.894;11.424;2024-01-15T04:10:56;9.45;;;3.97;;
21562;SDS011;10942;47.894;11.424;2024-01-15T04:13:22;9.40;;;3.92;;
21562;SDS011;10942;47.894;11.424;2024-01-15T04:15:48;9.55;;;4.93;;
21562;SDS011;10942;47.894;11.424;2024-01-15T04:18:15;8.90;;;4.65;;
21562;SDS011;10942;47.894;11.424;2024-01-15T04:20:41;7.95;;;3.95;;
21562;SDS011;10942;47.894;11.424;2024-01-15T04:23:07;10.07;;;3.80;;
21562;SDS011;10942;47.894;11.424;2024-01-15T04:25:33;8.77;;;3.72;;
21562;SDS011;10942;47.894;11.424;2024-01-15T04:28:00;7.53;;;3.75;;
21562;SDS011;10942;47.894;11.424;2024-01-15T04:30:26;8.63;;;4.13;;
21562;SDS011;10942;47.894;11.424;2024-01-15T04:32:51;9.05;;;4.75;;
21562;SDS011;10942;47.894;11.424;2024-01-15T04:35:17;8.88;;;3.70;;
21562;SDS011;10942;47.894;11.424;2024-01-15T04:37:43;7.50;;;4.03;;
21562;SDS011;10942;47.894;11.424;2024-01-15T04:40:10;8.50;;;3.63;;
21562;SDS011;10942;47.894;11.424;2024-01-15T04:42:36;9.07;;;4.03;;
21562;SDS011;10942;47.894;11.424;2024-01-15T04:45:02;8.13;;;3.95;;
21562;SDS011;10942;47.894;11.424;2024-01-15T04:47:28;8.40;;;3.80;;
21562;SDS011;10942;47.894;11.424;2024-01-15T04:49:54;8.10;;;3.65;;
21562;SDS011;10942;47.894;11.424;2024-01-15T04:52:20;6.72;;;3.10;;
21562;SDS011;10942;47.894;11.424;2024-01-15T04:54:46;7.57;;;3.92;;
21562;SDS011;10942;47.894;11.424;2024-01-15T04:57:12;9.93;;;3.58;;
21562;SDS011;10942;47.894;11.424;2024-01-15T04:59:39;7.53;;;4.30;;
21562;SDS011;10942;47.894;11.424;2024-01-15T05:02:05;6.82;;;3.67;;
21562;SDS011;10942;47.894;11.424;2024-01-15T05:04:31;11.18;;;4.85;;
21562;SDS011;10942;47.894;11.424;2024-01-15T05:06:58;8.77;;;4.10;;
21562;SDS011;10942;47.894;11.424;2024-01-15T05:09:24;8.45;;;4.60;;
21562;SDS011;10942;47.894;11.424;2024-01-15T05:11:50;9.48;;;4.22;;
21562;SDS011;10942;47.894;11.424;2024-01-15T05:14:16;7.32;;;3.50;;
21562;SDS011;10942;47.894;11.424;2024-01-15T05:16:51;11.90;;;4.63;;
21562;SDS011;10942;47.894;11.424;2024-01-15T05:19:17;7.90;;;4.50;;
21562;SDS011;10942;47.894;11.424;2024-01-15T05:21:43;8.27;;;3.67;;
21562;SDS011;10942;47.894;11.424;2024-01-15T05:24:09;11.48;;;3.67;;
21562;SDS011;10942;47.894;11.424;2024-01-15T05:26:35;9.23;;;4.20;;
21562;SDS011;10942;47.894;11.424;2024-01-15T05:29:01;7.13;;;3.40;;
21562;SDS011;10942;47.894;11.424;2024-01-15T05:31:28;8.27;;;3.80;;
21562;SDS011;10942;47.894;11.424;2024-01-15T05:33:54;10.43;;;3.80;;
21562;SDS011;10942;47.894;11.424;2024-01-15T05:36:20;8.00;;;3.83;;
21562;SDS011;10942;47.894;11.424;2024-01-15T05:38:47;9.63;;;4.30;;
21562;SDS011;10942;47.894;11.424;2024-01-15T05:41:13;7.82;;;3.70;;
21562;SDS011;10942;47.894;11.424;2024-01-15T05:43:39;10.02;;;3.90;;
21562;SDS011;10942;47.894;11.424;2024-01-15T05:46:05;10.10;;;4.45;;
21562;SDS011;10942;47.894;11.424;2024-01-15T05:48:31;7.03;;;3.65;;
21562;SDS011;10942;47.894;11.424;2024-01-15T05:50:57;8.43;;;3.70;;
21562;SDS011;10942;47.894;11.424;2024-01-15T05:53:24;9.68;;;4.05;;
21562;SDS011;10942;47.894;11.424;2024-01-15T05:55:50;9.73;;;4.35;;
21562;SDS011;10942;47.894;11.424;2024-01-15T05:58:16;8.25;;;4.07;;
21562;SDS011;10942;47.894;11.424;2024-01-15T06:00:42;9.20;;;4.32;;
21562;SDS011;10942;47.894;11.424;2024-01-15T06:03:08;11.20;;;4.78;;
21562;SDS011;10942;47.894;11.424;2024-01-15T06:05:34;9.52;;;4.13;;
21562;SDS011;10942;47.894;11.424;2024-01-15T06:08:00;8.05;;;4.25;;
21562;SDS011;10942;47.894;11.424;2024-01-15T06:10:26;8.65;;;4.00;;
21562;SDS011;10942;47.894;11.424;2024-01-15T06:12:52;9.38;;;4.40;;
21562;SDS011;10942;47.894;11.424;2024-01-15T06:15:19;7.13;;;3.97;;
21562;SDS011;10942;47.894;11.424;2024-01-15T06:17:45;9.02;;;3.95;;
21562;SDS011;10942;47.894;11.424;2024-01-15T06:20:11;10.45;;;4.45;;
21562;SDS011;10942;47.894;11.424;2024-01-15T06:22:37;12.20;;;5.13;;
21562;SDS011;10942;47.894;11.424;2024-01-15T06:25:05;9.13;;;4.78;;
21562;SDS011;10942;47.894;11.424;2024-01-15T06:27:31;8.18;;;4.20;;
21562;SDS011;10942;47.894;11.424;2024-01-15T06:29:57;8.70;;;4.15;;
21562;SDS011;10942;47.894;11.424;2024-01-15T06:32:23;10.95;;;5.45;;
21562;SDS011;10942;47.894;11.424;2024-01-15T06:34:50;10.05;;;4.93;;
21562;SDS011;10942;47.894;11.424;2024-01-15T06:37:16;9.10;;;3.95;;
21562;SDS011;10942;47.894;11.424;2024-01-15T06:39:44;9.88;;;4.68;;
21562;SDS011;10942;47.894;11.424;2024-01-15T06:42:10;8.85;;;4.72;;
21562;SDS011;10942;47.894;11.424;2024-01-15T06:44:36;9.25;;;4.55;;
21562;SDS011;10942;47.894;11.424;2024-01-15T06:47:02;9.65;;;4.57;;
21562;SDS011;10942;47.894;11.424;2024-01-15T06:49:28;11.15;;;4.95;;
21562;SDS011;10942;47.894;11.424;2024-01-15T06:51:55;12.00;;;5.30;;
21562;SDS011;10942;47.894;11.424;2024-01-15T06:54:21;12.75;;;5.10;;
21562;SDS011;10942;47.894;11.424;2024-01-15T06:56:48;11.57;;;6.07;;
21562;SDS011;10942;47.894;11.424;2024-01-15T06:59:15;11.38;;;5.82;;
21562;SDS011;10942;47.894;11.424;2024-01-15T07:01:41;13.13;;;5.55;;
21562;SDS011;10942;47.894;11.424;2024-01-15T07:04:07;10.80;;;5.15;;
21562;SDS011;10942;47.894;11.424;2024-01-15T07:06:33;10.30;;;5.22;;
21562;SDS011;10942;47.894;11.424;2024-01-15T07:08:59;8.82;;;4.65;;
21562;SDS011;10942;47.894;11.424;2024-01-15T07:11:25;9.40;;;5.10;;
21562;SDS011;10942;47.894;11.424;2024-01-15T07:13:51;9.13;;;5.03;;
21562;SDS011;10942;47.894;11.424;2024-01-15T07:16:17;12.75;;;6.70;;
21562;SDS011;10942;47.894;11.424;2024-01-15T07:18:43;9.93;;;5.30;;
21562;SDS011;10942;47.894;11.424;2024-01-15T07:21:10;12.32;;;5.43;;
21562;SDS011;10942;47.894;11.424;2024-01-15T07:23:36;9.80;;;4.50;;
21562;SDS011;10942;47.894;11.424;2024-01-15T07:26:02;10.00;;;4.63;;
21562;SDS011;10942;47.894;11.424;2024-01-15T07:28:31;8.63;;;4.43;;
21562;SDS011;10942;47.894;11.424;2024-01-15T07:30:57;9.18;;;4.63;;
21562;SDS011;10942;47.894;11.424;2024-01-15T07:33:23;10.35;;;4.40;;
21562;SDS011;10942;47.894;11.424;2024-01-15T07:35:49;7.97;;;4.25;;
21562;SDS011;10942;47.894;11.424;2024-01-15T07:38:15;9.38;;;4.07;;
21562;SDS011;10942;47.894;11.424;2024-01-15T07:40:41;9.55;;;4.40;;
21562;SDS011;10942;47.894;11.424;2024-01-15T07:43:07;10.70;;;5.03;;
21562;SDS011;10942;47.894;11.424;2024-01-15T07:45:33;9.70;;;5.35;;
21562;SDS011;10942;47.894;11.424;2024-01-15T07:47:59;9.80;;;4.97;;
21562;SDS011;10942;47.894;11.424;2024-01-15T07:50:25;9.13;;;4.60;;
21562;SDS011;10942;47.894;11.424;2024-01-15T07:52:51;10.25;;;4.95;;
21562;SDS011;10942;47.894;11.424;2024-01-15T07:55:18;16.02;;;7.93;;
21562;SDS011;10942;47.894;11.424;2024-01-15T07:57:44;12.77;;;6.15;;
21562;SDS011;10942;47.894;11.424;2024-01-15T08:00:11;10.68;;;5.28;;
21562;SDS011;10942;47.894;11.424;2024-01-15T08:02:37;9.13;;;5.38;;
21562;SDS011;10942;47.894;11.424;2024-01-15T08:05:03;11.02;;;5.75;;
21562;SDS011;10942;47.894;11.424;2024-01-15T08:07:30;8.88;;;4.68;;
21562;SDS011;10942;47.894;11.424;2024-01-15T08:09:56;10.10;;;5.32;;
21562;SDS011;10942;47.894;11.424;2024-01-15T08:12:23;12.07;;;6.07;;
21562;SDS011;10942;47.894;11.424;2024-01-15T08:14:49;10.48;;;5.22;;
21562;SDS011;10942;47.894;11.424;2024-01-15T08:17:15;10.52;;;4.20;;
21562;SDS011;10942;47.894;11.424;2024-01-15T08:19:42;8.80;;;4.72;;
21562;SDS011;10942;47.894;11.424;2024-01-15T08:22:08;7.45;;;4.57;;
21562;SDS011;10942;47.894;11.424;2024-01-15T08:24:35;12.93;;;4.90;;
21562;SDS011;10942;47.894;11.424;2024-01-15T08:27:01;12.82;;;5.65;;
21562;SDS011;10942;47.894;11.424;2024-01-15T08:29:27;12.88;;;5.82;;
21562;SDS011;10942;47.894;11.424;2024-01-15T08:31:53;9.68;;;4.72;;
21562;SDS011;10942;47.894;11.424;2024-01-15T08:34:19;13.30;;;6.88;;
21562;SDS011;10942;47.894;11.424;2024-01-15T08:36:45;12.05;;;5.95;;
21562;SDS011;10942;47.894;11.424;2024-01-15T08:39:11;10.25;;;4.90;;
21562;SDS011;10942;47.894;11.424;2024-01-15T08:41:37;11.68;;;4.75;;
21562;SDS011;10942;47.894;11.424;2024-01-15T08:44:03;9.45;;;4.70;;
21562;SDS011;10942;47.894;11.424;2024-01-15T08:46:28;9.82;;;4.65;;
21562;SDS011;10942;47.894;11.424;2024-01-15T08:48:54;8.93;;;4.75;;
21562;SDS011;10942;47.894;11.424;2024-01-15T08:51:20;10.00;;;4.47;;
21562;SDS011;10942;47.894;11.424;2024-01-15T08:53:46;9.20;;;4.47;;
21562;SDS011;10942;47.894;11.424;2024-01-15T08:56:11;9.95;;;4.65;;
21562;SDS011;10942;47.894;11.424;2024-01-15T08:58:37;8.82;;;4.40;;
21562;SDS011;10942;47.894;11.424;2024-01-15T09:01:03;9.13;;;4.82;;
21562;SDS011;10942;47.894;11.424;2024-01-15T09:03:29;12.45;;;5.93;;
21562;SDS011;10942;47.894;11.424;2024-01-15T09:05:55;13.13;;;6.53;;
21562;SDS011;10942;47.894;11.424;2024-01-15T09:08:21;12.52;;;6.07;;
21562;SDS011;10942;47.894;11.424;2024-01-15T09:10:47;10.70;;;5.05;;
21562;SDS011;10942;47.894;11.424;2024-01-15T09:13:12;10.80;;;5.40;;
21562;SDS011;10942;47.894;11.424;2024-01-15T09:15:38;17.42;;;7.57;;
21562;SDS011;10942;47.894;11.424;2024-01-15T09:18:04;12.48;;;6.32;;
21562;SDS011;10942;47.894;11.424;2024-01-15T09:20:30;17.67;;;7.47;;
21562;SDS011;10942;47.894;11.424;2024-01-15T09:22:56;20.70;;;7.68;;
21562;SDS011;10942;47.894;11.424;2024-01-15T09:25:21;19.63;;;8.00;;
21562;SDS011;10942;47.894;11.424;2024-01-15T09:27:47;24.52;;;10.63;;
21562;SDS011;10942;47.894;11.424;2024-01-15T09:30:13;31.55;;;12.75;;
21562;SDS011;10942;47.894;11.424;2024-01-15T09:32:39;16.80;;;8.45;;
21562;SDS011;10942;47.894;11.424;2024-01-15T09:35:05;12.93;;;6.47;;
21562;SDS011;10942;47.894;11.424;2024-01-15T09:37:31;8.50;;;4.35;;
21562;SDS011;10942;47.894;11.424;2024-01-15T09:39:57;9.20;;;4.95;;
21562;SDS011;10942;47.894;11.424;2024-01-15T09:42:24;10.77;;;4.90;;
21562;SDS011;10942;47.894;11.424;2024-01-15T09:44:51;8.90;;;4.60;;
21562;SDS011;10942;47.894;11.424;2024-01-15T09:47:17;14.05;;;6.93;;
21562;SDS011;10942;47.894;11.424;2024-01-15T09:49:43;10.88;;;4.82;;
21562;SDS011;10942;47.894;11.424;2024-01-15T09:52:10;15.07;;;5.40;;
21562;SDS011;10942;47.894;11.424;2024-01-15T09:54:37;31.50;;;13.55;;
21562;SDS011;10942;47.894;11.424;2024-01-15T09:57:04;14.85;;;6.63;;
21562;SDS011;10942;47.894;11.424;2024-01-15T09:59:30;11.85;;;4.85;;
21562;SDS011;10942;47.894;11.424;2024-01-15T10:01:57;8.82;;;4.45;;
21562;SDS011;10942;47.894;11.424;2024-01-15T10:04:24;11.65;;;4.82;;
21562;SDS011;10942;47.894;11.424;2024-01-15T10:06:50;9.02;;;3.97;;
21562;SDS011;10942;47.894;11.424;2024-01-15T10:09:17;5.85;;;2.83;;
21562;SDS011;10942;47.894;11.424;2024-01-15T10:11:43;8.07;;;3.15;;
21562;SDS011;10942;47.894;11.424;2024-01-15T10:14:12;6.90;;;3.38;;
21562;SDS011;10942;47.894;11.424;2024-01-15T10:16:42;8.73;;;3.13;;
21562;SDS011;10942;47.894;11.424;2024-01-15T10:19:08;6.55;;;2.90;;
21562;SDS011;10942;47.894;11.424;2024-01-15T10:21:34;5.10;;;2.63;;
21562;SDS011;10942;47.894;11.424;2024-01-15T10:24:01;6.68;;;3.17;;
21562;SDS011;10942;47.894;11.424;2024-01-15T10:26:27;6.80;;;3.03;;
21562;SDS011;10942;47.894;11.424;2024-01-15T10:28:54;8.75;;;4.07;;
21562;SDS011;10942;47.894;11.424;2024-01-15T10:31:20;6.53;;;2.97;;
21562;SDS011;10942;47.894;11.424;2024-01-15T10:33:49;7.18;;;3.42;;
21562;SDS011;10942;47.894;11.424;2024-01-15T10:36:16;4.18;;;2.08;;
21562;SDS011;10942;47.894;11.424;2024-01-15T10:38:46;4.65;;;2.33;;
21562;SDS011;10942;47.894;11.424;2024-01-15T10:41:12;5.15;;;1.88;;
21562;SDS011;10942;47.894;11.424;2024-01-15T10:43:37;5.25;;;2.20;;
21562;SDS011;10942;47.894;11.424;2024-01-15T10:46:06;5.63;;;2.38;;
21562;SDS011;10942;47.894;11.424;2024-01-15T10:48:32;6.15;;;2.53;;
21562;SDS011;10942;47.894;11.424;2024-01-15T10:51:00;7.68;;;2.75;;
21562;SDS011;10942;47.894;11.424;2024-01-15T10:53:35;6.75;;;3.13;;
21562;SDS011;10942;47.894;11.424;2024-01-15T10:56:04;6.78;;;3.28;;
21562;SDS011;10942;47.894;11.424;2024-01-15T10:58:31;7.38;;;2.92;;
21562;SDS011;10942;47.894;11.424;2024-01-15T11:00:58;6.63;;;3.10;;
21562;SDS011;10942;47.894;11.424;2024-01-15T11:03:24;8.48;;;4.07;;
21562;SDS011;10942;47.894;11.424;2024-01-15T11:05:50;9.77;;;4.45;;
21562;SDS011;10942;47.894;11.424;2024-01-15T11:08:18;7.18;;;4.07;;
21562;SDS011;10942;47.894;11.424;2024-01-15T11:10:45;9.35;;;4.68;;
21562;SDS011;10942;47.894;11.424;2024-01-15T11:16:01;9.32;;;4.80;;
21562;SDS011;10942;47.894;11.424;2024-01-15T11:18:34;10.40;;;4.72;;
21562;SDS011;10942;47.894;11.424;2024-01-15T11:23:44;19.27;;;8.52;;
21562;SDS011;10942;47.894;11.424;2024-01-15T11:29:04;7.10;;;3.88;;
21562;SDS011;10942;47.894;11.424;2024-01-15T11:34:04;6.97;;;3.65;;
21562;SDS011;10942;47.894;11.424;2024-01-15T11:42:01;8.38;;;3.40;;
21562;SDS011;10942;47.894;11.424;2024-01-15T11:44:30;6.57;;;2.97;;
21562;SDS011;10942;47.894;11.424;2024-01-15T11:46:59;7.28;;;3.25;;
21562;SDS011;10942;47.894;11.424;2024-01-15T11:52:47;7.28;;;2.88;;
21562;SDS011;10942;47.894;11.424;2024-01-15T11:55:36;5.55;;;2.80;;
21562;SDS011;10942;47.894;11.424;2024-01-15T11:58:10;5.63;;;2.78;;
21562;SDS011;10942;47.894;11.424;2024-01-15T12:00:45;5.57;;;2.67;;
21562;SDS011;10942;47.894;11.424;2024-01-15T12:03:14;4.13;;;2.10;;
21562;SDS011;10942;47.894;11.424;2024-01-15T12:05:40;5.97;;;2.55;;
21562;SDS011;10942;47.894;11.424;2024-01-15T12:08:09;5.53;;;2.55;;
21562;SDS011;10942;47.894;11.424;2024-01-15T12:10:37;7.22;;;2.90;;
21562;SDS011;10942;47.894;11.424;2024-01-15T12:13:12;7.25;;;3.53;;
21562;SDS011;10942;47.894;11.424;2024-01-15T12:15:39;10.65;;;3.92;;
21562;SDS011;10942;47.894;11.424;2024-01-15T12:18:07;7.72;;;3.20;;
21562;SDS011;10942;47.894;11.424;2024-01-15T12:20:34;7.03;;;3.70;;
21562;SDS011;10942;47.894;11.424;2024-01-15T12:23:01;6.53;;;3.33;;
21562;SDS011;10942;47.894;11.424;2024-01-15T12:25:31;5.70;;;3.10;;
21562;SDS011;10942;47.894;11.424;2024-01-15T12:28:01;7.22;;;3.20;;
21562;SDS011;10942;47.894;11.424;2024-01-15T12:30:27;7.75;;;2.92;;
21562;SDS011;10942;47.894;11.424;2024-01-15T12:32:54;6.47;;;3.22;;
21562;SDS011;10942;47.894;11.424;2024-01-15T12:35:19;7.00;;;3.33;;
21562;SDS011;10942;47.894;11.424;2024-01-15T12:37:45;10.18;;;5.00;;
21562;SDS011;10942;47.894;11.424;2024-01-15T12:40:11;6.88;;;3.53;;
21562;SDS011;10942;47.894;11.424;2024-01-15T12:42:39;5.82;;;2.88;;
21562;SDS011;10942;47.894;11.424;2024-01-15T12:45:05;7.50;;;3.30;;
21562;SDS011;10942;47.894;11.424;2024-01-15T12:47:32;6.13;;;2.85;;
21562;SDS011;10942;47.894;11.424;2024-01-15T12:49:58;5.57;;;2.90;;
21562;SDS011;10942;47.894;11.424;2024-01-15T12:52:29;5.70;;;2.92;;
21562;SDS011;10942;47.894;11.424;2024-01-15T12:54:56;5.25;;;2.83;;
21562;SDS011;10942;47.894;11.424;2024-01-15T12:57:22;5.90;;;3.22;;
21562;SDS011;10942;47.894;11.424;2024-01-15T12:59:48;6.03;;;2.75;;
21562;SDS011;10942;47.894;11.424;2024-01-15T13:02:15;4.22;;;2.22;;
21562;SDS011;10942;47.894;11.424;2024-01-15T13:04:44;5.03;;;2.35;;
21562;SDS011;10942;47.894;11.424;2024-01-15T13:07:09;4.40;;;2.25;;
21562;SDS011;10942;47.894;11.424;2024-01-15T13:09:35;4.50;;;2.28;;
21562;SDS011;10942;47.894;11.424;2024-01-15T13:12:01;6.03;;;2.60;;
21562;SDS011;10942;47.894;11.424;2024-01-15T13:14:27;4.80;;;2.22;;
21562;SDS011;10942;47.894;11.424;2024-01-15T13:16:53;5.75;;;1.80;;
21562;SDS011;10942;47.894;11.424;2024-01-15T13:19:20;4.43;;;2.08;;
21562;SDS011;10942;47.894;11.424;2024-01-15T13:21:47;5.03;;;2.10;;
21562;SDS011;10942;47.894;11.424;2024-01-15T13:24:13;3.70;;;1.75;;
21562;SDS011;10942;47.894;11.424;2024-01-15T13:26:39;3.72;;;1.92;;
21562;SDS011;10942;47.894;11.424;2024-01-15T13:29:05;6.20;;;2.10;;
21562;SDS011;10942;47.894;11.424;2024-01-15T13:31:31;3.40;;;1.80;;
21562;SDS011;10942;47.894;11.424;2024-01-15T13:33:57;3.72;;;1.85;;
21562;SDS011;10942;47.894;11.424;2024-01-15T13:36:23;3.40;;;1.50;;
21562;SDS011;10942;47.894;11.424;2024-01-15T13:38:50;5.20;;;2.17;;
21562;SDS011;10942;47.894;11.424;2024-01-15T13:41:16;4.57;;;1.67;;
21562;SDS011;10942;47.894;11.424;2024-01-15T13:43:55;5.00;;;1.83;;
21562;SDS011;10942;47.894;11.424;2024-01-15T13:46:22;4.82;;;2.25;;
21562;SDS011;10942;47.894;11.424;2024-01-15T13:48:49;3.08;;;1.77;;
21562;SDS011;10942;47.894;11.424;2024-01-15T13:51:15;2.70;;;1.30;;
21562;SDS011;10942;47.894;11.424;2024-01-15T13:53:41;3.30;;;1.50;;
21562;SDS011;10942;47.894;11.424;2024-01-15T13:56:07;6.15;;;2.97;;
21562;SDS011;10942;47.894;11.424;2024-01-15T13:58:35;4.15;;;2.10;;
21562;SDS011;10942;47.894;11.424;2024-01-15T14:01:01;5.70;;;3.05;;
21562;SDS011;10942;47.894;11.424;2024-01-15T14:03:29;4.68;;;1.92;;
21562;SDS011;10942;47.894;11.424;2024-01-15T14:05:54;8.63;;;3.20;;
21562;SDS011;10942;47.894;11.424;2024-01-15T14:08:20;4.53;;;2.22;;
21562;SDS011;10942;47.894;11.424;2024-01-15T14:10:46;6.55;;;2.28;;
21562;SDS011;10942;47.894;11.424;2024-01-15T14:13:12;8.32;;;3.35;;
21562;SDS011;10942;47.894;11.424;2024-01-15T14:15:38;5.68;;;2.70;;
21562;SDS011;10942;47.894;11.424;2024-01-15T14:18:04;5.80;;;2.47;;
21562;SDS011;10942;47.894;11.424;2024-01-15T14:20:29;5.35;;;2.65;;
21562;SDS011;10942;47.894;11.424;2024-01-15T14:22:56;5.43;;;1.98;;
21562;SDS011;10942;47.894;11.424;2024-01-15T14:25:21;7.45;;;3.38;;
21562;SDS011;10942;47.894;11.424;2024-01-15T14:27:47;3.00;;;1.63;;
21562;SDS011;10942;47.894;11.424;2024-01-15T14:30:13;4.78;;;2.25;;
21562;SDS011;10942;47.894;11.424;2024-01-15T14:32:41;6.43;;;3.05;;
21562;SDS011;10942;47.894;11.424;2024-01-15T14:35:09;7.07;;;3.30;;
21562;SDS011;10942;47.894;11.424;2024-01-15T14:37:38;4.05;;;2.03;;
21562;SDS011;10942;47.894;11.424;2024-01-15T14:40:05;6.55;;;2.42;;
21562;SDS011;10942;47.894;11.424;2024-01-15T14:42:33;5.65;;;1.88;;
21562;SDS011;10942;47.894;11.424;2024-01-15T14:45:02;5.70;;;2.10;;